createdAt,value
2023-04-25T00:00:17.904Z,11.98
2023-04-25T00:02:45.076Z,12.30
2023-04-25T00:05:12.589Z,11.93
2023-04-25T00:07:39.911Z,12.38
2023-04-25T00:10:07.793Z,13.20
2023-04-25T00:12:34.901Z,12.05
2023-04-25T00:15:01.921Z,12.52
2023-04-25T00:17:29.233Z,12.55
2023-04-25T00:19:56.954Z,11.55
2023-04-25T00:22:23.949Z,12.05
2023-04-25T00:24:51.432Z,11.60
2023-04-25T00:27:18.436Z,11.75
2023-04-25T00:29:46.536Z,12.15
2023-04-25T00:32:13.665Z,11.20
2023-04-25T00:34:40.947Z,10.95
2023-04-25T00:37:07.973Z,11.43
2023-04-25T00:39:35.085Z,11.20
2023-04-25T00:42:03.113Z,11.38
2023-04-25T00:44:33.144Z,10.95
2023-04-25T00:47:02.856Z,10.07
2023-04-25T00:49:29.927Z,10.98
2023-04-25T00:51:57.816Z,10.57
2023-04-25T00:54:25.632Z,10.10
2023-04-25T00:56:53.139Z,10.00
2023-04-25T00:59:21.550Z,10.52
2023-04-25T01:01:48.672Z,10.18
2023-04-25T01:04:16.056Z,10.40
2023-04-25T01:06:43.232Z,10.07
2023-04-25T01:09:11.254Z,9.68
2023-04-25T01:11:38.228Z,9.55
2023-04-25T01:14:05.557Z,9.88
2023-04-25T01:16:34.239Z,10.88
2023-04-25T01:19:01.380Z,10.32
2023-04-25T01:21:30.822Z,9.68
2023-04-25T01:23:58.243Z,10.52
2023-04-25T01:26:26.016Z,10.20
2023-04-25T01:28:53.259Z,10.48
2023-04-25T01:31:21.095Z,10.63
2023-04-25T01:33:49.020Z,11.00
2023-04-25T01:36:16.634Z,13.13
2023-04-25T01:38:45.067Z,14.35
2023-04-25T01:41:12.310Z,14.07
2023-04-25T01:43:39.582Z,13.15
2023-04-25T01:46:06.957Z,13.32
2023-04-25T01:48:34.070Z,15.70
2023-04-25T01:51:01.175Z,15.05
2023-04-25T01:53:29.735Z,15.45
2023-04-25T01:55:57.019Z,15.05
2023-04-25T01:58:26.222Z,15.68
2023-04-25T02:01:06.131Z,14.15
2023-04-25T02:03:40.947Z,13.13
2023-04-25T02:06:13.826Z,13.02
2023-04-25T02:08:44.403Z,12.35
2023-04-25T02:11:13.076Z,11.65
2023-04-25T02:13:46.412Z,11.80
2023-04-25T02:16:32.985Z,11.07
2023-04-25T02:19:01.646Z,11.27
2023-04-25T02:21:31.554Z,11.05
2023-04-25T02:23:58.961Z,11.60
2023-04-25T02:26:28.954Z,13.40
2023-04-25T02:28:55.964Z,6.43
2023-04-25T02:31:23.194Z,11.32
2023-04-25T02:33:51.919Z,10.40
2023-04-25T02:36:19.224Z,9.20
2023-04-25T02:38:46.297Z,8.57
2023-04-25T02:41:13.241Z,7.40
2023-04-25T02:43:40.327Z,6.82
2023-04-25T02:46:07.469Z,6.65
2023-04-25T02:48:34.433Z,6.68
2023-04-25T02:51:01.394Z,5.72
2023-04-25T02:53:28.838Z,5.57
2023-04-25T02:55:55.898Z,5.70
2023-04-25T02:58:22.890Z,6.10
2023-04-25T03:00:52.544Z,5.60
2023-04-25T03:03:22.780Z,5.35
2023-04-25T03:05:51.884Z,5.22
2023-04-25T03:08:23.980Z,5.30
2023-04-25T03:10:52.457Z,4.70
2023-04-25T03:13:19.729Z,3.83
2023-04-25T03:15:47.153Z,4.75
2023-04-25T03:18:14.141Z,4.30
2023-04-25T03:20:42.783Z,5.15
2023-04-25T03:23:10.064Z,5.93
2023-04-25T03:25:38.068Z,5.18
2023-04-25T03:28:05.307Z,5.65
2023-04-25T03:30:33.139Z,5.30
2023-04-25T03:33:00.727Z,4.85
2023-04-25T03:35:27.813Z,5.20
2023-04-25T03:37:55.438Z,4.72
2023-04-25T03:40:27.909Z,4.53
2023-04-25T03:43:18.215Z,4.55
2023-04-25T03:45:52.353Z,4.88
2023-04-25T03:48:28.184Z,3.88
2023-04-25T03:50:55.916Z,4.70
2023-04-25T03:53:23.175Z,4.20
2023-04-25T03:56:08.636Z,4.00
2023-04-25T03:58:38.255Z,3.60
2023-04-25T04:01:08.700Z,3.53
2023-04-25T04:03:38.752Z,3.90
2023-04-25T04:06:07.702Z,3.50
2023-04-25T04:08:38.625Z,3.55
2023-04-25T04:11:06.146Z,3.88
2023-04-25T04:13:33.717Z,3.90
2023-04-25T04:16:02.184Z,4.40
2023-04-25T04:18:29.156Z,3.92
2023-04-25T04:20:59.141Z,3.45
2023-04-25T04:23:29.157Z,3.40
2023-04-25T04:25:57.385Z,3.58
2023-04-25T04:28:47.737Z,3.45
2023-04-25T04:31:40.984Z,2.10
2023-04-25T04:34:08.040Z,3.67
2023-04-25T04:36:35.938Z,3.58
2023-04-25T04:39:04.344Z,3.70
2023-04-25T04:41:38.240Z,3.60
2023-04-25T04:44:28.265Z,3.97
2023-04-25T04:47:15.205Z,3.65
2023-04-25T04:50:02.465Z,3.70
2023-04-25T04:52:49.477Z,3.47
2023-04-25T04:55:35.119Z,3.47
2023-04-25T04:58:23.921Z,3.50
2023-04-25T05:01:13.931Z,3.17
2023-04-25T05:04:02.155Z,4.35
2023-04-25T05:06:48.646Z,3.70
2023-04-25T05:09:31.207Z,3.78
2023-04-25T05:12:20.804Z,3.70
2023-04-25T05:14:56.598Z,1.63
2023-04-25T05:17:59.104Z,3.65
2023-04-25T05:20:39.273Z,2.38
2023-04-25T05:23:24.825Z,4.28
2023-04-25T05:26:06.655Z,3.72
2023-04-25T05:28:56.881Z,4.10
2023-04-25T05:31:49.860Z,4.18
2023-04-25T05:34:17.748Z,4.45
2023-04-25T05:36:54.273Z,4.50
2023-04-25T05:39:21.737Z,3.92
2023-04-25T05:42:11.578Z,4.25
2023-04-25T05:44:50.822Z,1.95
2023-04-25T05:47:34.420Z,4.03
2023-04-25T05:50:22.207Z,4.15
2023-04-25T05:52:59.651Z,4.57
2023-04-25T05:55:32.428Z,4.93
2023-04-25T05:58:01.915Z,4.55
2023-04-25T06:00:29.175Z,4.38
2023-04-25T06:02:57.106Z,4.30
2023-04-25T06:05:24.675Z,4.93
2023-04-25T06:07:51.923Z,4.43
2023-04-25T06:10:20.348Z,4.78
2023-04-25T06:12:48.257Z,4.82
2023-04-25T06:15:27.974Z,2.72
2023-04-25T06:17:57.011Z,4.70
2023-04-25T06:20:25.549Z,4.53
2023-04-25T06:22:54.527Z,2.03
2023-04-25T06:25:27.464Z,4.75
2023-04-25T06:27:55.516Z,4.60
2023-04-25T06:30:26.668Z,4.65
2023-04-25T06:32:58.701Z,4.68
2023-04-25T06:35:26.359Z,4.53
2023-04-25T06:37:53.875Z,4.60
2023-04-25T06:40:23.266Z,2.72
2023-04-25T06:42:50.410Z,4.72
2023-04-25T06:45:33.201Z,4.45
2023-04-25T06:48:00.391Z,5.38
2023-04-25T06:50:27.567Z,4.35
2023-04-25T06:52:54.633Z,4.93
2023-04-25T06:55:22.309Z,4.40
2023-04-25T06:58:04.486Z,4.75
2023-04-25T07:00:50.469Z,4.55
2023-04-25T07:03:20.267Z,4.72
2023-04-25T07:05:47.562Z,2.80
2023-04-25T07:08:14.530Z,4.93
2023-04-25T07:10:42.353Z,2.25
2023-04-25T07:13:09.463Z,4.35
2023-04-25T07:15:36.968Z,4.38
2023-04-25T07:18:04.150Z,4.97
2023-04-25T07:20:32.018Z,4.25
2023-04-25T07:22:59.292Z,4.88
2023-04-25T07:25:26.544Z,4.22
2023-04-25T07:27:53.882Z,4.47
2023-04-25T07:30:22.281Z,4.80
2023-04-25T07:32:49.566Z,5.15
2023-04-25T07:35:17.417Z,4.93
2023-04-25T07:37:44.621Z,4.40
2023-04-25T07:40:18.537Z,4.70
2023-04-25T07:42:56.207Z,4.72
2023-04-25T07:47:57.377Z,4.22
2023-04-25T07:50:25.005Z,3.58
2023-04-25T07:52:52.124Z,2.45
2023-04-25T07:55:27.362Z,4.43
2023-04-25T07:58:09.388Z,4.60
2023-04-25T08:00:39.046Z,4.50
2023-04-25T08:03:24.854Z,4.28
2023-04-25T08:05:53.785Z,4.55
2023-04-25T08:08:21.474Z,3.90
2023-04-25T08:10:49.495Z,4.50
2023-04-25T08:13:17.630Z,4.30
2023-04-25T08:15:45.733Z,3.97
2023-04-25T08:18:14.171Z,4.45
2023-04-25T08:20:43.288Z,3.75
2023-04-25T08:23:11.952Z,3.53
2023-04-25T08:26:02.051Z,3.50
2023-04-25T08:28:30.323Z,3.53
2023-04-25T08:31:00.180Z,2.90
2023-04-25T08:36:38.718Z,3.70
2023-04-25T08:39:18.617Z,3.25
2023-04-25T08:42:05.694Z,3.28
2023-04-25T08:44:37.361Z,2.90
2023-04-25T08:47:06.172Z,3.38
2023-04-25T08:49:41.004Z,2.88
2023-04-25T08:52:11.943Z,2.95
2023-04-25T08:54:44.521Z,2.70
2023-04-25T08:57:13.045Z,3.15
2023-04-25T08:59:44.057Z,2.50
2023-04-25T09:04:44.679Z,2.53
2023-04-25T09:07:11.816Z,2.70
2023-04-25T09:09:40.450Z,2.80
2023-04-25T09:12:07.666Z,3.08
2023-04-25T09:14:34.739Z,2.40
2023-04-25T09:17:09.526Z,2.50
2023-04-25T09:19:49.111Z,2.90
2023-04-25T09:22:23.820Z,2.97
2023-04-25T09:24:52.242Z,2.70
2023-04-25T09:27:26.347Z,2.78
2023-04-25T09:30:02.728Z,2.53
2023-04-25T09:32:45.067Z,2.60
2023-04-25T09:35:12.701Z,2.65
2023-04-25T09:37:41.890Z,3.13
2023-04-25T09:40:48.555Z,2.20
2023-04-25T09:43:26.666Z,2.20
2023-04-25T09:45:59.214Z,2.35
2023-04-25T09:48:28.814Z,1.85
2023-04-25T09:51:05.545Z,1.92
2023-04-25T09:53:34.476Z,1.88
2023-04-25T09:56:14.461Z,2.40
2023-04-25T09:58:42.684Z,2.30
2023-04-25T10:01:11.863Z,1.85
2023-04-25T10:03:52.898Z,2.00
2023-04-25T10:06:39.528Z,1.70
2023-04-25T10:09:09.358Z,1.60
2023-04-25T10:11:37.820Z,2.08
2023-04-25T10:14:05.668Z,1.90
2023-04-25T10:16:33.089Z,1.90
2023-04-25T10:19:00.896Z,1.90
2023-04-25T10:21:34.325Z,1.48
2023-04-25T10:24:02.068Z,1.60
2023-04-25T10:26:31.133Z,1.77
2023-04-25T10:29:03.319Z,1.45
2023-04-25T10:31:34.008Z,1.90
2023-04-25T10:34:02.603Z,1.70
2023-04-25T10:36:33.218Z,1.65
2023-04-25T10:39:08.033Z,1.83
2023-04-25T10:41:48.332Z,1.70
2023-04-25T10:44:16.482Z,1.70
2023-04-25T10:46:46.917Z,1.92
2023-04-25T10:49:31.622Z,2.15
2023-04-25T10:52:25.888Z,1.50
2023-04-25T10:54:56.354Z,1.63
2023-04-25T10:57:30.779Z,1.90
2023-04-25T11:00:16.237Z,1.77
2023-04-25T11:02:59.086Z,2.03
2023-04-25T11:05:51.101Z,1.92
2023-04-25T11:08:38.300Z,1.75
2023-04-25T11:11:05.472Z,1.90
2023-04-25T11:13:32.527Z,1.67
2023-04-25T11:16:07.475Z,1.75
2023-04-25T11:18:42.964Z,1.98
2023-04-25T11:21:10.559Z,2.03
2023-04-25T11:23:37.924Z,1.50
2023-04-25T11:26:08.470Z,1.70
2023-04-25T11:28:35.482Z,1.95
2023-04-25T11:31:05.320Z,2.05
2023-04-25T11:33:32.337Z,2.53
2023-04-25T11:35:59.329Z,2.20
2023-04-25T11:38:29.986Z,2.10
2023-04-25T11:40:57.912Z,1.95
2023-04-25T11:43:25.010Z,1.60
2023-04-25T11:45:52.857Z,1.48
2023-04-25T11:48:22.708Z,1.98
2023-04-25T11:50:55.191Z,1.33
2023-04-25T11:53:22.188Z,1.50
2023-04-25T11:55:49.149Z,1.50
2023-04-25T11:58:16.454Z,1.30
2023-04-25T12:00:50.421Z,1.38
2023-04-25T12:03:19.592Z,1.13
2023-04-25T12:05:47.762Z,1.20
2023-04-25T12:08:16.353Z,1.27
2023-04-25T12:10:46.361Z,1.60
2023-04-25T12:13:25.379Z,1.58
2023-04-25T12:15:53.145Z,1.30
2023-04-25T12:18:22.252Z,1.20
2023-04-25T12:20:49.609Z,1.50
2023-04-25T12:23:16.564Z,1.77
2023-04-25T12:25:45.663Z,1.50
2023-04-25T12:28:28.668Z,1.80
2023-04-25T12:31:06.787Z,1.50
2023-04-25T12:33:38.357Z,1.20
2023-04-25T12:36:10.171Z,1.48
2023-04-25T12:38:39.593Z,1.13
2023-04-25T12:41:07.270Z,1.45
2023-04-25T12:43:34.673Z,1.17
2023-04-25T12:46:01.886Z,1.38
2023-04-25T12:48:29.047Z,1.67
2023-04-25T12:50:56.386Z,1.80
2023-04-25T12:53:27.002Z,1.60
2023-04-25T12:58:26.794Z,1.33
2023-04-25T13:00:53.787Z,2.28
2023-04-25T13:03:21.062Z,1.23
2023-04-25T13:05:48.287Z,1.65
2023-04-25T13:08:15.540Z,1.15
2023-04-25T13:10:42.962Z,1.65
2023-04-25T13:13:10.406Z,1.15
2023-04-25T13:15:37.850Z,1.50
2023-04-25T13:18:06.843Z,1.15
2023-04-25T13:20:34.225Z,1.05
2023-04-25T13:23:02.707Z,1.15
2023-04-25T13:25:30.081Z,1.30
2023-04-25T13:27:57.108Z,1.38
2023-04-25T13:30:24.051Z,1.30
2023-04-25T13:32:51.187Z,1.13
2023-04-25T13:35:18.216Z,1.67
2023-04-25T13:37:45.193Z,1.48
2023-04-25T13:40:12.876Z,1.40
2023-04-25T13:42:40.665Z,1.50
2023-04-25T13:45:08.675Z,1.52
2023-04-25T13:47:35.963Z,1.65
2023-04-25T13:50:04.423Z,1.45
2023-04-25T13:52:31.763Z,1.40
2023-04-25T13:54:59.651Z,1.27
2023-04-25T13:57:26.911Z,1.65
2023-04-25T13:59:54.756Z,1.77
2023-04-25T14:02:21.798Z,1.30
2023-04-25T14:04:49.035Z,1.48
2023-04-25T14:07:20.308Z,1.40
2023-04-25T14:09:47.323Z,1.25
2023-04-25T14:12:14.507Z,1.30
2023-04-25T14:14:41.478Z,1.50
2023-04-25T14:17:10.002Z,1.80
2023-04-25T14:19:38.685Z,1.45
2023-04-25T14:22:05.744Z,1.30
2023-04-25T14:24:32.760Z,1.50
2023-04-25T14:26:59.796Z,1.30
2023-04-25T14:29:27.181Z,1.60
2023-04-25T14:31:55.598Z,1.55
2023-04-25T14:34:22.695Z,1.83
2023-04-25T14:36:49.705Z,1.63
2023-04-25T14:39:17.627Z,2.00
2023-04-25T14:41:44.557Z,1.70
2023-04-25T14:44:13.538Z,1.70
2023-04-25T14:46:40.617Z,1.73
2023-04-25T14:49:08.384Z,1.13
2023-04-25T14:51:35.574Z,1.60
2023-04-25T14:54:03.540Z,1.67
2023-04-25T14:56:30.658Z,1.75
2023-04-25T14:58:57.658Z,1.58
2023-04-25T15:01:24.823Z,1.63
2023-04-25T15:03:52.552Z,1.67
2023-04-25T15:06:19.839Z,1.33
2023-04-25T15:08:46.847Z,1.67
2023-04-25T15:11:13.884Z,1.48
2023-04-25T15:13:41.266Z,1.80
2023-04-25T15:16:08.361Z,2.05
2023-04-25T15:18:35.379Z,1.42
2023-04-25T15:21:02.695Z,1.13
2023-04-25T15:23:29.963Z,1.70
2023-04-25T15:25:57.097Z,1.33
2023-04-25T15:28:24.048Z,1.48
2023-04-25T15:30:51.559Z,1.50
2023-04-25T15:33:18.690Z,1.50
2023-04-25T15:35:45.946Z,1.83
2023-04-25T15:38:13.292Z,1.95
2023-04-25T15:40:41.080Z,1.70
2023-04-25T15:43:11.100Z,1.52
2023-04-25T15:45:38.240Z,1.60
2023-04-25T15:48:05.576Z,1.58
2023-04-25T15:50:32.930Z,1.38
2023-04-25T15:53:00.050Z,1.38
2023-04-25T15:55:27.836Z,1.70
2023-04-25T15:57:54.770Z,1.60
2023-04-25T16:00:22.631Z,1.40
2023-04-25T16:02:50.161Z,1.23
2023-04-25T16:05:18.224Z,1.45
2023-04-25T16:07:47.106Z,1.52
2023-04-25T16:10:14.707Z,1.52
2023-04-25T16:12:41.793Z,1.40
2023-04-25T16:15:09.378Z,1.25
2023-04-25T16:17:36.523Z,1.33
2023-04-25T16:20:10.003Z,1.20
2023-04-25T16:22:38.728Z,1.33
2023-04-25T16:25:06.555Z,1.88
2023-04-25T16:27:34.824Z,1.50
2023-04-25T16:30:02.723Z,1.45
2023-04-25T16:32:29.888Z,1.30
2023-04-25T16:34:58.834Z,1.60
2023-04-25T16:37:26.519Z,1.40
2023-04-25T16:39:53.654Z,1.52
2023-04-25T16:42:20.797Z,1.60
2023-04-25T16:44:47.764Z,1.98
2023-04-25T16:47:18.613Z,1.73
2023-04-25T16:49:46.640Z,1.73
2023-04-25T16:52:14.340Z,1.30
2023-04-25T16:54:41.569Z,1.65
2023-04-25T16:57:11.112Z,1.52
2023-04-25T16:59:39.458Z,1.60
2023-04-25T17:02:10.686Z,1.52
2023-04-25T17:04:38.135Z,1.60
2023-04-25T17:07:05.625Z,1.70
2023-04-25T17:09:33.020Z,1.23
2023-04-25T17:12:00.430Z,1.50
2023-04-25T17:14:27.530Z,1.42
2023-04-25T17:16:54.529Z,1.38
2023-04-25T17:19:21.724Z,1.50
2023-04-25T17:21:48.840Z,1.58
2023-04-25T17:24:16.054Z,1.35
2023-04-25T17:26:43.096Z,1.42
2023-04-25T17:29:10.576Z,1.52
2023-04-25T17:31:38.190Z,1.30
2023-04-25T17:34:05.357Z,1.40
2023-04-25T17:36:32.737Z,1.40
2023-04-25T17:38:59.970Z,1.50
2023-04-25T17:41:27.122Z,1.25
2023-04-25T17:43:54.174Z,1.17
2023-04-25T17:46:21.413Z,1.80
2023-04-25T17:48:49.662Z,1.50
2023-04-25T17:51:16.832Z,1.35
2023-04-25T17:53:44.040Z,1.70
2023-04-25T17:56:23.309Z,1.42
2023-04-25T17:58:53.683Z,1.63
2023-04-25T18:01:21.028Z,1.35
2023-04-25T18:03:49.968Z,1.63
2023-04-25T18:06:18.791Z,1.50
2023-04-25T18:08:47.259Z,1.52
2023-04-25T18:11:14.472Z,1.58
2023-04-25T18:13:41.671Z,1.58
2023-04-25T18:16:08.950Z,1.20
2023-04-25T18:18:37.106Z,1.55
2023-04-25T18:21:05.793Z,1.58
2023-04-25T18:23:36.000Z,1.42
2023-04-25T18:26:04.360Z,1.50
2023-04-25T18:28:31.654Z,1.50
2023-04-25T18:30:58.902Z,1.40
2023-04-25T18:33:25.898Z,1.60
2023-04-25T18:38:34.775Z,1.75
2023-04-25T18:41:15.432Z,1.15
2023-04-25T18:43:50.885Z,1.35
2023-04-25T18:46:22.376Z,1.10
2023-04-25T18:48:51.605Z,1.50
2023-04-25T18:51:19.458Z,1.50
2023-04-25T18:53:46.846Z,1.40
2023-04-25T18:56:15.136Z,1.25
2023-04-25T18:58:42.806Z,1.38
2023-04-25T19:01:10.488Z,1.75
2023-04-25T19:03:38.262Z,1.60
2023-04-25T19:06:06.094Z,1.17
2023-04-25T19:08:33.256Z,1.40
2023-04-25T19:11:07.649Z,1.30
2023-04-25T19:13:41.413Z,1.30
2023-04-25T19:16:09.025Z,1.45
2023-04-25T19:18:36.115Z,1.75
2023-04-25T19:21:05.465Z,1.50
2023-04-25T19:23:33.044Z,1.40
2023-04-25T19:26:00.144Z,1.58
2023-04-25T19:28:27.430Z,1.83
2023-04-25T19:30:54.514Z,1.75
2023-04-25T19:33:21.704Z,1.80
2023-04-25T19:35:48.753Z,1.50
2023-04-25T19:38:16.642Z,1.52
2023-04-25T19:40:43.881Z,1.60
2023-04-25T19:43:11.288Z,1.40
2023-04-25T19:45:38.364Z,1.75
2023-04-25T19:48:05.662Z,1.42
2023-04-25T19:50:32.737Z,1.60
2023-04-25T19:52:59.827Z,1.73
2023-04-25T19:55:28.215Z,1.42
2023-04-25T19:57:55.195Z,2.00
2023-04-25T20:00:22.811Z,1.60
2023-04-25T20:02:50.148Z,1.50
2023-04-25T20:05:17.960Z,1.88
2023-04-25T20:07:45.052Z,1.58
2023-04-25T20:10:14.094Z,1.63
2023-04-25T20:12:41.244Z,1.75
2023-04-25T20:15:10.021Z,1.88
2023-04-25T20:17:38.509Z,1.38
2023-04-25T20:20:06.536Z,2.08
2023-04-25T20:22:37.161Z,1.25
2023-04-25T20:25:09.088Z,1.88
2023-04-25T20:27:40.428Z,1.40
2023-04-25T20:30:08.988Z,1.85
2023-04-25T20:32:36.928Z,2.20
2023-04-25T20:35:06.243Z,1.48
2023-04-25T20:37:33.695Z,2.13
2023-04-25T20:40:02.098Z,0.80
2023-04-25T20:42:29.203Z,1.92
2023-04-25T20:44:56.307Z,1.15
2023-04-25T20:47:23.500Z,1.98
2023-04-25T20:49:50.549Z,2.00
2023-04-25T20:52:18.031Z,1.65
2023-04-25T20:54:50.375Z,2.20
2023-04-25T20:57:17.747Z,2.25
2023-04-25T20:59:44.905Z,1.17
2023-04-25T21:02:15.723Z,1.50
2023-04-25T21:04:44.300Z,1.80
2023-04-25T21:07:12.884Z,2.15
2023-04-25T21:09:41.863Z,2.00
2023-04-25T21:12:08.936Z,2.03
2023-04-25T21:14:35.990Z,2.67
2023-04-25T21:17:04.522Z,2.00
2023-04-25T21:19:31.759Z,1.17
2023-04-25T21:21:59.103Z,2.38
2023-04-25T21:24:27.377Z,1.95
2023-04-25T21:26:54.468Z,2.30
2023-04-25T21:29:21.469Z,1.85
2023-04-25T21:31:48.579Z,1.65
2023-04-25T21:34:15.707Z,2.30
2023-04-25T21:36:44.280Z,1.40
2023-04-25T21:39:11.623Z,1.27
2023-04-25T21:41:38.679Z,1.88
2023-04-25T21:44:06.532Z,1.58
2023-04-25T21:46:34.193Z,1.83
2023-04-25T21:49:01.164Z,2.53
2023-04-25T21:51:29.314Z,2.60
2023-04-25T21:53:56.342Z,1.95
2023-04-25T21:56:23.330Z,1.80
2023-04-25T21:58:50.723Z,1.65
2023-04-25T22:01:18.244Z,1.92
2023-04-25T22:03:45.418Z,1.55
2023-04-25T22:06:12.518Z,2.45
2023-04-25T22:08:39.547Z,1.85
2023-04-25T22:11:07.466Z,1.48
2023-04-25T22:13:35.090Z,1.30
2023-04-25T22:16:02.198Z,1.23
2023-04-25T22:18:29.292Z,1.67
2023-04-25T22:20:56.677Z,2.47
2023-04-25T22:23:23.914Z,2.80
2023-04-25T22:25:50.822Z,1.95
2023-04-25T22:28:18.200Z,1.75
2023-04-25T22:30:45.209Z,2.25
2023-04-25T22:33:12.278Z,2.78
2023-04-25T22:35:39.304Z,1.98
2023-04-25T22:38:06.516Z,1.70
2023-04-25T22:40:33.598Z,2.08
2023-04-25T22:43:00.733Z,2.75
2023-04-25T22:45:27.918Z,1.90
2023-04-25T22:47:55.136Z,1.90
2023-04-25T22:50:22.124Z,2.35
2023-04-25T22:52:49.143Z,1.40
2023-04-25T22:55:16.164Z,1.63
2023-04-25T22:57:43.197Z,2.15
2023-04-25T23:00:20.196Z,1.88
2023-04-25T23:02:48.866Z,2.05
2023-04-25T23:05:16.199Z,1.90
2023-04-25T23:07:44.951Z,1.85
2023-04-25T23:10:13.276Z,2.70
2023-04-25T23:12:40.480Z,2.28
2023-04-25T23:15:08.491Z,1.77
2023-04-25T23:17:36.882Z,2.05
2023-04-25T23:20:07.422Z,2.20
2023-04-25T23:22:34.767Z,1.98
2023-04-25T23:25:02.023Z,2.13
2023-04-25T23:27:29.069Z,2.72
2023-04-25T23:29:56.813Z,3.17
2023-04-25T23:32:26.006Z,3.05
2023-04-25T23:34:53.096Z,2.65
2023-04-25T23:37:20.173Z,2.60
2023-04-25T23:39:50.868Z,3.75
2023-04-25T23:42:18.678Z,3.42
2023-04-25T23:44:45.703Z,3.25
2023-04-25T23:47:14.213Z,3.50
2023-04-25T23:49:41.451Z,3.22
2023-04-25T23:52:08.658Z,3.70
2023-04-25T23:54:36.068Z,3.28
2023-04-25T23:57:06.244Z,2.83
2023-04-25T23:59:33.447Z,3.03
